createdAt,value
2023-02-15T00:01:57.321Z,21.17
2023-02-15T00:04:46.558Z,19.20
2023-02-15T00:07:20.125Z,19.37
2023-02-15T00:09:48.654Z,23.63
2023-02-15T00:12:17.381Z,19.83
2023-02-15T00:14:45.660Z,20.80
2023-02-15T00:17:13.943Z,18.50
2023-02-15T00:19:42.177Z,21.23
2023-02-15T00:22:10.446Z,19.00
2023-02-15T00:24:40.045Z,17.13
2023-02-15T00:27:10.013Z,18.17
2023-02-15T00:29:38.254Z,17.53
2023-02-15T00:32:07.049Z,17.33
2023-02-15T00:34:39.728Z,17.33
2023-02-15T00:37:08.241Z,18.00
2023-02-15T00:39:36.496Z,21.23
2023-02-15T00:42:06.336Z,18.83
2023-02-15T00:44:34.572Z,16.30
2023-02-15T00:47:02.853Z,18.83
2023-02-15T00:49:31.041Z,19.80
2023-02-15T00:51:59.261Z,18.30
2023-02-15T00:54:27.572Z,19.07
2023-02-15T00:56:55.767Z,20.17
2023-02-15T00:59:25.349Z,20.00
2023-02-15T01:01:53.542Z,18.73
2023-02-15T01:04:21.855Z,20.30
2023-02-15T01:06:50.174Z,17.00
2023-02-15T01:09:18.622Z,21.43
2023-02-15T01:11:46.852Z,18.47
2023-02-15T01:14:15.590Z,21.43
2023-02-15T01:16:45.219Z,18.50
2023-02-15T01:19:13.523Z,21.30
2023-02-15T01:21:42.166Z,19.57
2023-02-15T01:24:14.156Z,20.83
2023-02-15T01:26:42.455Z,22.43
2023-02-15T01:29:10.674Z,24.20
2023-02-15T01:31:40.115Z,20.27
2023-02-15T01:34:09.926Z,21.00
2023-02-15T01:36:38.171Z,18.37
2023-02-15T01:39:06.417Z,18.77
2023-02-15T01:41:34.644Z,18.33
2023-02-15T01:44:03.813Z,19.37
2023-02-15T01:46:35.554Z,21.43
2023-02-15T01:49:06.224Z,20.90
2023-02-15T01:51:37.566Z,20.67
2023-02-15T01:54:08.101Z,18.33
2023-02-15T01:56:37.563Z,18.70
2023-02-15T01:59:07.577Z,18.33
2023-02-15T02:01:35.835Z,19.93
2023-02-15T02:04:08.035Z,20.20
2023-02-15T02:06:38.934Z,22.30
2023-02-15T02:09:07.585Z,22.37
2023-02-15T02:11:36.640Z,23.53
2023-02-15T02:14:05.000Z,19.83
2023-02-15T02:16:39.236Z,20.40
2023-02-15T02:19:20.238Z,20.40
2023-02-15T02:22:03.378Z,21.50
2023-02-15T02:24:49.289Z,20.50
2023-02-15T02:27:38.529Z,17.80
2023-02-15T02:30:24.877Z,19.57
2023-02-15T02:33:02.528Z,19.97
2023-02-15T02:35:32.938Z,16.93
2023-02-15T02:38:06.200Z,16.43
2023-02-15T02:40:38.694Z,18.30
2023-02-15T02:43:12.038Z,16.33
2023-02-15T02:45:43.781Z,18.70
2023-02-15T02:48:16.719Z,18.83
2023-02-15T02:50:45.047Z,19.90
2023-02-15T02:53:13.390Z,19.47
2023-02-15T02:55:45.243Z,18.07
2023-02-15T02:58:16.478Z,18.37
2023-02-15T03:00:48.578Z,16.60
2023-02-15T03:03:22.965Z,19.20
2023-02-15T03:05:53.205Z,17.30
2023-02-15T03:08:23.631Z,19.33
2023-02-15T03:10:54.328Z,20.57
2023-02-15T03:13:22.900Z,21.17
2023-02-15T03:16:09.979Z,23.40
2023-02-15T03:18:41.731Z,25.37
2023-02-15T03:21:22.823Z,23.83
2023-02-15T03:23:52.630Z,23.13
2023-02-15T03:26:21.623Z,21.90
2023-02-15T03:28:51.935Z,21.67
2023-02-15T03:31:21.199Z,22.37
2023-02-15T03:33:53.258Z,25.90
2023-02-15T03:36:23.137Z,25.17
2023-02-15T03:38:53.029Z,27.37
2023-02-15T03:41:22.517Z,30.13
2023-02-15T03:43:52.718Z,24.47
2023-02-15T03:46:22.993Z,27.07
2023-02-15T03:48:55.322Z,28.57
2023-02-15T03:51:37.391Z,27.73
2023-02-15T03:54:06.853Z,52.43
2023-02-15T03:56:37.202Z,38.97
2023-02-15T03:59:23.355Z,36.17
2023-02-15T04:02:00.950Z,50.53
2023-02-15T04:04:32.472Z,41.60
2023-02-15T04:07:00.781Z,37.17
2023-02-15T04:09:46.822Z,22.17
2023-02-15T04:12:15.197Z,28.90
2023-02-15T04:15:01.275Z,26.47
2023-02-15T04:17:29.629Z,17.93
2023-02-15T04:20:17.024Z,30.87
2023-02-15T04:23:02.804Z,20.37
2023-02-15T04:25:31.097Z,15.90
2023-02-15T04:27:59.437Z,17.17
2023-02-15T04:30:28.490Z,49.67
2023-02-15T04:32:58.066Z,18.77
2023-02-15T04:35:27.709Z,31.83
2023-02-15T04:37:56.837Z,34.07
2023-02-15T04:40:25.389Z,68.03
2023-02-15T04:42:53.655Z,24.23
2023-02-15T04:45:21.926Z,25.03
2023-02-15T04:47:50.916Z,35.97
2023-02-15T04:50:19.189Z,31.17
2023-02-15T04:52:48.840Z,26.73
2023-02-15T04:55:17.218Z,48.23
2023-02-15T04:57:45.456Z,23.77
2023-02-15T05:00:14.061Z,41.23
2023-02-15T05:02:42.388Z,47.87
2023-02-15T05:05:13.900Z,64.00
2023-02-15T05:07:42.167Z,30.33
2023-02-15T05:10:12.464Z,29.50
2023-02-15T05:12:40.782Z,25.57
2023-02-15T05:15:09.376Z,21.27
2023-02-15T05:17:37.682Z,29.63
2023-02-15T05:20:06.280Z,23.90
2023-02-15T05:22:34.545Z,25.23
2023-02-15T05:25:20.659Z,27.23
2023-02-15T05:28:07.821Z,21.37
2023-02-15T05:30:36.233Z,22.03
2023-02-15T05:33:04.725Z,23.97
2023-02-15T05:35:33.030Z,25.33
2023-02-15T05:38:01.311Z,22.73
2023-02-15T05:40:29.767Z,24.93
2023-02-15T05:42:59.983Z,21.83
2023-02-15T05:45:28.381Z,28.77
2023-02-15T05:47:58.934Z,24.43
2023-02-15T05:50:27.528Z,21.57
2023-02-15T05:52:55.794Z,21.33
2023-02-15T05:55:24.061Z,21.33
2023-02-15T05:57:52.328Z,27.00
2023-02-15T06:00:22.203Z,35.23
2023-02-15T06:02:50.507Z,26.10
2023-02-15T06:05:19.044Z,28.80
2023-02-15T06:07:47.519Z,22.77
2023-02-15T06:10:15.724Z,36.30
2023-02-15T06:12:44.002Z,30.87
2023-02-15T06:15:12.332Z,29.37
2023-02-15T06:17:43.575Z,32.57
2023-02-15T06:20:12.210Z,29.53
2023-02-15T06:22:40.500Z,26.90
2023-02-15T06:25:11.151Z,23.03
2023-02-15T06:27:39.530Z,23.33
2023-02-15T06:30:09.014Z,26.23
2023-02-15T06:32:37.572Z,28.47
2023-02-15T06:35:07.584Z,19.77
2023-02-15T06:37:35.867Z,27.47
2023-02-15T06:40:04.975Z,19.63
2023-02-15T06:42:33.346Z,23.23
2023-02-15T06:45:01.592Z,21.33
2023-02-15T06:47:29.884Z,20.53
2023-02-15T06:49:58.597Z,21.27
2023-02-15T06:52:29.366Z,21.60
2023-02-15T06:54:57.827Z,18.00
2023-02-15T06:57:26.118Z,21.53
2023-02-15T06:59:54.383Z,23.37
2023-02-15T07:02:22.692Z,22.67
2023-02-15T07:04:51.020Z,22.80
2023-02-15T07:07:19.385Z,21.80
2023-02-15T07:09:49.390Z,19.17
2023-02-15T07:12:35.619Z,24.97
2023-02-15T07:15:07.809Z,21.80
2023-02-15T07:17:36.653Z,23.97
2023-02-15T07:20:05.889Z,24.67
2023-02-15T07:22:35.204Z,25.17
2023-02-15T07:25:05.607Z,21.57
2023-02-15T07:27:34.268Z,24.00
2023-02-15T07:30:02.670Z,25.67
2023-02-15T07:32:31.719Z,23.03
2023-02-15T07:35:00.347Z,25.40
2023-02-15T07:37:28.999Z,24.90
2023-02-15T07:39:57.400Z,23.80
2023-02-15T07:42:27.103Z,24.73
2023-02-15T07:44:55.399Z,23.33
2023-02-15T07:47:25.552Z,23.87
2023-02-15T07:49:53.992Z,25.13
2023-02-15T07:52:25.723Z,20.33
2023-02-15T07:54:54.042Z,19.33
2023-02-15T07:57:24.418Z,23.17
2023-02-15T08:00:04.783Z,21.53
2023-02-15T08:02:33.206Z,21.33
2023-02-15T08:05:01.457Z,19.47
2023-02-15T08:07:29.742Z,18.23
2023-02-15T08:09:58.001Z,19.77
2023-02-15T08:12:28.404Z,18.40
2023-02-15T08:14:58.030Z,21.60
2023-02-15T08:17:26.742Z,17.63
2023-02-15T08:19:54.937Z,18.90
2023-02-15T08:22:23.201Z,19.43
2023-02-15T08:24:51.453Z,16.30
2023-02-15T08:27:27.579Z,19.97
2023-02-15T08:29:55.856Z,18.90
2023-02-15T08:32:25.507Z,20.77
2023-02-15T08:34:53.799Z,17.07
2023-02-15T08:37:22.076Z,20.40
2023-02-15T08:39:50.293Z,20.80
2023-02-15T08:42:18.549Z,22.10
2023-02-15T08:44:48.958Z,19.53
2023-02-15T08:47:18.309Z,18.40
2023-02-15T08:49:48.019Z,18.70
2023-02-15T08:52:16.323Z,20.83
2023-02-15T08:54:44.690Z,18.33
2023-02-15T08:57:12.921Z,19.27
2023-02-15T08:59:47.140Z,18.73
2023-02-15T09:02:15.520Z,17.37
2023-02-15T09:04:43.986Z,18.53
2023-02-15T09:07:13.658Z,17.23
2023-02-15T09:09:41.874Z,18.27
2023-02-15T09:12:10.156Z,16.93
2023-02-15T09:14:38.770Z,17.03
2023-02-15T09:17:07.042Z,20.60
2023-02-15T09:19:35.443Z,19.27
2023-02-15T09:22:03.747Z,19.50
2023-02-15T09:24:34.547Z,16.73
2023-02-15T09:27:02.841Z,19.50
2023-02-15T09:29:31.180Z,18.50
2023-02-15T09:31:59.511Z,20.07
2023-02-15T09:34:27.973Z,18.43
2023-02-15T09:36:56.213Z,19.57
2023-02-15T09:39:25.562Z,17.83
2023-02-15T09:42:02.734Z,19.47
2023-02-15T09:44:37.428Z,18.13
2023-02-15T09:47:13.806Z,20.70
2023-02-15T09:49:46.176Z,18.43
2023-02-15T09:52:28.230Z,19.37
2023-02-15T09:55:04.431Z,19.00
2023-02-15T09:57:37.288Z,21.77
2023-02-15T10:00:10.387Z,19.03
2023-02-15T10:02:47.035Z,20.00
2023-02-15T10:05:22.483Z,19.37
2023-02-15T10:08:03.040Z,19.03
2023-02-15T10:10:35.617Z,19.33
2023-02-15T10:13:12.937Z,20.43
2023-02-15T10:15:52.888Z,19.53
2023-02-15T10:18:27.211Z,19.00
2023-02-15T10:21:00.117Z,23.40
2023-02-15T10:23:37.658Z,19.73
2023-02-15T10:26:15.096Z,21.63
2023-02-15T10:28:48.286Z,23.60
2023-02-15T10:31:22.208Z,21.93
2023-02-15T10:33:51.289Z,23.43
2023-02-15T10:36:25.774Z,24.83
2023-02-15T10:38:59.383Z,24.90
2023-02-15T10:41:33.374Z,24.77
2023-02-15T10:44:14.172Z,22.77
2023-02-15T10:47:02.153Z,23.20
2023-02-15T10:49:38.189Z,26.27
2023-02-15T10:52:13.794Z,26.40
2023-02-15T10:54:46.363Z,25.10
2023-02-15T10:57:21.029Z,24.00
2023-02-15T11:00:13.308Z,25.93
2023-02-15T11:02:53.257Z,23.77
2023-02-15T11:05:32.426Z,24.87
2023-02-15T11:08:02.038Z,27.07
2023-02-15T11:10:32.997Z,23.93
2023-02-15T11:13:05.189Z,27.67
2023-02-15T11:15:36.101Z,29.17
2023-02-15T11:18:08.465Z,25.17
2023-02-15T11:20:39.983Z,23.87
2023-02-15T11:23:16.265Z,25.03
2023-02-15T11:25:45.815Z,26.10
2023-02-15T11:28:20.003Z,25.83
2023-02-15T11:30:52.623Z,25.33
2023-02-15T11:33:25.342Z,26.43
2023-02-15T11:35:57.208Z,27.10
2023-02-15T11:38:27.252Z,24.23
2023-02-15T11:40:58.267Z,27.77
2023-02-15T11:43:30.088Z,27.80
2023-02-15T11:45:58.467Z,27.63
2023-02-15T11:48:28.286Z,26.70
2023-02-15T11:50:56.619Z,29.57
2023-02-15T11:53:28.498Z,26.03
2023-02-15T11:55:57.525Z,28.97
2023-02-15T11:58:30.263Z,26.30
2023-02-15T12:01:01.297Z,30.23
2023-02-15T12:03:38.237Z,26.60
2023-02-15T12:06:07.777Z,29.63
2023-02-15T12:08:40.965Z,29.40
2023-02-15T12:11:13.173Z,27.20
2023-02-15T12:13:56.019Z,29.47
2023-02-15T12:16:24.472Z,28.47
2023-02-15T12:18:55.328Z,26.90
2023-02-15T12:21:31.067Z,33.10
2023-02-15T12:24:00.603Z,28.07
2023-02-15T12:26:29.589Z,27.73
2023-02-15T12:29:02.551Z,27.37
2023-02-15T12:31:34.235Z,26.87
2023-02-15T12:34:06.695Z,27.10
2023-02-15T12:36:44.254Z,27.87
2023-02-15T12:39:23.187Z,30.40
2023-02-15T12:42:02.558Z,26.45
2023-02-15T12:44:31.555Z,27.58
2023-02-15T12:47:01.296Z,27.10
2023-02-15T12:49:32.020Z,26.77
2023-02-15T12:52:01.262Z,26.03
2023-02-15T12:54:36.977Z,28.83
2023-02-15T12:57:26.778Z,27.97
2023-02-15T12:59:56.362Z,28.77
2023-02-15T13:02:27.230Z,29.07
2023-02-15T13:04:58.205Z,29.37
2023-02-15T13:07:27.750Z,30.30
2023-02-15T13:09:56.176Z,27.27
2023-02-15T13:12:27.453Z,31.63
2023-02-15T13:14:57.451Z,29.40
2023-02-15T13:17:30.359Z,29.00
2023-02-15T13:20:01.496Z,31.48
2023-02-15T13:22:34.819Z,29.42
2023-02-15T13:25:06.151Z,25.85
2023-02-15T13:27:38.995Z,28.55
2023-02-15T13:30:13.816Z,43.15
2023-02-15T13:32:43.828Z,27.35
2023-02-15T13:35:17.500Z,25.55
2023-02-15T13:37:52.038Z,25.80
2023-02-15T13:40:23.560Z,27.38
2023-02-15T13:42:55.513Z,25.58
2023-02-15T13:45:31.519Z,27.85
2023-02-15T13:48:02.465Z,33.00
2023-02-15T13:50:46.420Z,27.20
2023-02-15T13:53:22.619Z,25.35
2023-02-15T13:55:53.703Z,24.52
2023-02-15T13:58:36.873Z,26.83
2023-02-15T14:01:11.116Z,25.20
2023-02-15T14:03:58.007Z,26.83
2023-02-15T14:06:40.585Z,36.60
2023-02-15T14:09:14.753Z,28.80
2023-02-15T14:11:47.410Z,26.98
2023-02-15T14:14:27.376Z,23.57
2023-02-15T14:17:06.689Z,24.40
2023-02-15T14:19:38.485Z,27.80
2023-02-15T14:22:14.323Z,27.77
2023-02-15T14:24:45.652Z,25.43
2023-02-15T14:27:18.925Z,23.37
2023-02-15T14:29:50.961Z,26.77
2023-02-15T14:32:24.759Z,29.37
2023-02-15T14:34:54.874Z,26.93
2023-02-15T14:37:31.020Z,29.50
2023-02-15T14:40:19.324Z,24.40
2023-02-15T14:42:51.746Z,27.93
2023-02-15T14:45:21.939Z,27.30
2023-02-15T14:47:55.233Z,26.03
2023-02-15T14:50:43.322Z,29.83
2023-02-15T14:53:39.634Z,27.63
2023-02-15T14:56:23.786Z,28.70
2023-02-15T14:58:59.322Z,24.70
2023-02-15T15:01:28.810Z,31.67
2023-02-15T15:03:58.437Z,35.87
2023-02-15T15:06:28.401Z,28.57
2023-02-15T15:09:00.442Z,27.20
2023-02-15T15:11:44.726Z,28.20
2023-02-15T15:14:14.480Z,25.53
2023-02-15T15:16:50.755Z,25.90
2023-02-15T15:19:50.898Z,25.20
2023-02-15T15:22:20.507Z,28.07
2023-02-15T15:24:49.779Z,30.90
2023-02-15T15:27:36.501Z,26.33
2023-02-15T15:30:27.427Z,29.90
2023-02-15T15:32:59.507Z,30.10
2023-02-15T15:35:30.824Z,27.17
2023-02-15T15:38:23.266Z,25.93
2023-02-15T15:41:04.722Z,29.30
2023-02-15T15:43:43.302Z,30.30
2023-02-15T15:46:25.238Z,24.53
2023-02-15T15:48:54.161Z,24.20
2023-02-15T15:51:23.804Z,29.93
2023-02-15T15:53:54.199Z,29.30
2023-02-15T15:56:23.706Z,29.77
2023-02-15T15:58:53.070Z,26.73
2023-02-15T16:01:26.744Z,27.63
2023-02-15T16:03:55.584Z,29.37
2023-02-15T16:06:31.116Z,29.30
2023-02-15T16:08:59.461Z,34.47
2023-02-15T16:11:28.564Z,32.43
2023-02-15T16:13:57.000Z,30.00
2023-02-15T16:16:29.051Z,38.50
2023-02-15T16:18:58.728Z,43.10
2023-02-15T16:21:30.753Z,32.63
2023-02-15T16:24:21.712Z,44.53
2023-02-15T16:27:03.278Z,44.23
2023-02-15T16:29:33.045Z,40.40
2023-02-15T16:32:06.697Z,38.37
2023-02-15T16:34:35.262Z,31.03
2023-02-15T16:37:16.224Z,34.30
2023-02-15T16:39:45.268Z,36.77
2023-02-15T16:42:13.874Z,37.80
2023-02-15T16:44:42.568Z,29.63
2023-02-15T16:47:15.000Z,43.87
2023-02-15T16:49:46.091Z,41.73
2023-02-15T16:52:17.600Z,31.37
2023-02-15T16:54:45.899Z,27.60
2023-02-15T16:57:18.957Z,34.77
2023-02-15T16:59:49.056Z,30.97
2023-02-15T17:02:40.165Z,27.70
2023-02-15T17:05:18.538Z,27.93
2023-02-15T17:07:52.057Z,30.07
2023-02-15T17:10:30.580Z,31.00
2023-02-15T17:13:02.816Z,28.03
2023-02-15T17:15:32.372Z,30.50
2023-02-15T17:18:03.878Z,34.67
2023-02-15T17:20:34.997Z,33.00
2023-02-15T17:23:04.377Z,31.73
2023-02-15T17:25:38.198Z,32.87
2023-02-15T17:28:07.096Z,33.27
2023-02-15T17:30:36.949Z,33.67
2023-02-15T17:33:07.097Z,32.50
2023-02-15T17:35:35.858Z,32.00
2023-02-15T17:38:06.334Z,36.83
2023-02-15T17:40:35.716Z,31.77
2023-02-15T17:43:04.029Z,34.77
2023-02-15T17:45:36.674Z,37.80
2023-02-15T17:48:16.547Z,39.03
2023-02-15T17:50:44.752Z,32.10
2023-02-15T17:53:13.210Z,33.83
2023-02-15T17:55:41.370Z,33.27
2023-02-15T17:58:10.651Z,36.33
2023-02-15T18:00:58.402Z,33.47
2023-02-15T18:03:48.827Z,36.73
2023-02-15T18:06:34.833Z,30.70
2023-02-15T18:09:20.902Z,32.63
2023-02-15T18:11:50.625Z,36.47
2023-02-15T18:14:18.870Z,34.40
2023-02-15T18:16:47.275Z,37.07
2023-02-15T18:19:18.064Z,33.43
2023-02-15T18:21:46.868Z,32.07
2023-02-15T18:24:16.883Z,36.20
2023-02-15T18:26:45.191Z,35.07
2023-02-15T18:29:13.703Z,31.90
2023-02-15T18:31:42.284Z,32.27
2023-02-15T18:34:15.057Z,35.93
2023-02-15T18:36:46.784Z,30.63
2023-02-15T18:39:25.363Z,31.57
2023-02-15T18:41:53.666Z,33.57
2023-02-15T18:44:21.950Z,35.70
2023-02-15T18:46:50.208Z,31.97
2023-02-15T18:49:18.560Z,34.60
2023-02-15T18:51:48.373Z,30.63
2023-02-15T18:54:19.313Z,39.93
2023-02-15T18:56:49.723Z,33.80
2023-02-15T18:59:18.621Z,26.30
2023-02-15T19:01:46.935Z,27.07
2023-02-15T19:04:15.318Z,30.43
2023-02-15T19:06:46.507Z,32.47
2023-02-15T19:09:18.927Z,30.63
2023-02-15T19:11:50.271Z,28.33
2023-02-15T19:14:26.427Z,25.83
2023-02-15T19:16:54.989Z,25.83
2023-02-15T19:19:23.370Z,30.90
2023-02-15T19:21:51.752Z,30.80
2023-02-15T19:24:25.074Z,29.73
2023-02-15T19:26:54.080Z,28.83
2023-02-15T19:29:26.569Z,32.67
2023-02-15T19:31:55.097Z,24.90
2023-02-15T19:34:23.800Z,29.40
2023-02-15T19:36:53.993Z,25.33
2023-02-15T19:39:26.884Z,26.27
2023-02-15T19:41:55.378Z,26.20
2023-02-15T19:44:23.940Z,22.50
2023-02-15T19:46:52.302Z,32.20
2023-02-15T19:49:20.602Z,27.00
2023-02-15T19:51:49.030Z,25.23
2023-02-15T19:54:30.801Z,29.30
2023-02-15T19:56:59.201Z,30.83
2023-02-15T19:59:28.979Z,24.20
2023-02-15T20:01:57.411Z,28.80
2023-02-15T20:04:26.242Z,30.33
2023-02-15T20:06:56.288Z,25.07
2023-02-15T20:09:26.076Z,26.23
2023-02-15T20:11:56.073Z,26.20
2023-02-15T20:14:24.930Z,22.80
2023-02-15T20:16:53.247Z,24.07
2023-02-15T20:19:21.494Z,24.67
2023-02-15T20:21:54.488Z,22.87
2023-02-15T20:24:23.685Z,26.37
2023-02-15T20:26:52.058Z,24.33
2023-02-15T20:29:21.682Z,27.23
2023-02-15T20:31:50.017Z,24.47
2023-02-15T20:34:18.334Z,25.40
2023-02-15T20:36:46.589Z,23.10
2023-02-15T20:39:16.625Z,25.37
2023-02-15T20:41:48.279Z,25.77
2023-02-15T20:44:18.879Z,22.00
2023-02-15T20:46:48.786Z,22.73
2023-02-15T20:49:17.089Z,22.17
2023-02-15T20:51:46.992Z,20.33
2023-02-15T20:54:16.473Z,21.20
2023-02-15T20:56:44.851Z,20.60
2023-02-15T20:59:23.918Z,21.10
2023-02-15T21:01:55.866Z,24.03
2023-02-15T21:04:25.505Z,19.03
2023-02-15T21:06:53.753Z,22.87
2023-02-15T21:09:22.190Z,20.50
2023-02-15T21:11:51.665Z,20.10
2023-02-15T21:14:20.612Z,19.53
2023-02-15T21:16:49.192Z,19.80
2023-02-15T21:19:19.791Z,21.23
2023-02-15T21:21:48.999Z,19.50
2023-02-15T21:24:18.471Z,19.30
2023-02-15T21:26:47.633Z,25.87
2023-02-15T21:29:17.088Z,25.40
2023-02-15T21:31:45.554Z,21.47
2023-02-15T21:34:13.972Z,20.00
2023-02-15T21:36:44.276Z,17.67
2023-02-15T21:39:25.474Z,22.87
2023-02-15T21:42:12.136Z,17.90
2023-02-15T21:44:58.254Z,19.83
2023-02-15T21:47:44.824Z,22.63
2023-02-15T21:50:31.707Z,20.40
2023-02-15T21:53:05.178Z,21.63
2023-02-15T21:55:34.006Z,19.30
2023-02-15T21:58:02.517Z,17.00
2023-02-15T22:00:31.688Z,18.87
2023-02-15T22:03:02.049Z,18.30
2023-02-15T22:05:31.575Z,19.37
2023-02-15T22:07:59.850Z,20.80
2023-02-15T22:10:30.760Z,20.87
2023-02-15T22:12:59.243Z,22.00
2023-02-15T22:15:28.757Z,19.93
2023-02-15T22:17:57.099Z,22.83
2023-02-15T22:20:26.279Z,23.10
2023-02-15T22:22:54.779Z,19.20
2023-02-15T22:25:24.944Z,20.47
2023-02-15T22:27:55.278Z,21.80
2023-02-15T22:30:26.361Z,22.67
2023-02-15T22:32:55.024Z,21.87
2023-02-15T22:35:24.877Z,18.13
2023-02-15T22:37:53.145Z,22.13
2023-02-15T22:40:22.126Z,22.73
2023-02-15T22:42:52.398Z,22.57
2023-02-15T22:45:23.249Z,22.03
2023-02-15T22:47:52.217Z,25.90
2023-02-15T22:50:21.383Z,22.67
2023-02-15T22:52:49.910Z,24.53
2023-02-15T22:55:18.549Z,24.23
2023-02-15T22:57:48.139Z,22.97
2023-02-15T23:00:19.135Z,27.50
2023-02-15T23:02:48.802Z,24.40
2023-02-15T23:05:21.485Z,23.70
2023-02-15T23:07:50.083Z,25.90
2023-02-15T23:10:27.891Z,23.67
2023-02-15T23:13:14.764Z,25.03
2023-02-15T23:15:43.588Z,24.40
2023-02-15T23:18:21.180Z,26.63
2023-02-15T23:20:50.588Z,23.63
2023-02-15T23:23:19.686Z,25.60
2023-02-15T23:25:48.986Z,27.60
2023-02-15T23:28:22.102Z,22.40
2023-02-15T23:30:50.539Z,24.70
2023-02-15T23:33:20.851Z,28.10
2023-02-15T23:35:49.135Z,25.77
2023-02-15T23:38:21.352Z,26.10
2023-02-15T23:41:09.298Z,25.17
2023-02-15T23:43:37.719Z,24.53
2023-02-15T23:46:07.450Z,24.13
2023-02-15T23:48:38.099Z,25.50
2023-02-15T23:51:06.890Z,25.37
2023-02-15T23:53:35.311Z,26.93
2023-02-15T23:56:03.731Z,23.03
2023-02-15T23:58:36.871Z,31.63
